Time;durP1;ratioP1;P1;durP2;ratioP2;P2;SDS_P1;SDS_P2;PMS_P1;PMS_P2;Temp;Humidity;BMP_temperature;BMP_pressure;BME280_temperature;BME280_humidity;BME280_pressure;Samples;Min_cycle;Max_cycle;Signal;HPM_P1;HPM_P2
2024/04/15 00:00:13;;;;;;;;;;;;;;;14.81;53.26;99065.09;5411884;26;20173;-78
2024/04/15 00:02:38;;;;;;;;;;;;;;;14.60;54.03;99069.47;5415362;26;19929;-77
2024/04/15 00:05:03;;;;;;;;;;;;;;;14.34;54.28;99059.72;5383242;26;19930;-80
2024/04/15 00:07:29;;;;;;;;;;;;;;;14.32;53.92;99055.81;5380096;26;19930;-81
2024/04/15 00:09:54;;;;;;;;;;;;;;;14.23;53.96;99060.06;5411409;26;19936;-80
2024/04/15 00:12:19;;;;;;;;;;;;;;;14.19;53.80;99056.66;5396795;26;19945;-80
2024/04/15 00:14:45;;;;;;;;;;;;;;;14.17;55.05;99053.53;5411582;26;20385;-80
2024/04/15 00:17:10;;;;;;;;;;;;;;;14.10;55.19;99058.59;5395096;26;19929;-80
2024/04/15 00:19:36;;;;;;;;;;;;;;;14.01;54.94;99061.28;5410461;26;20006;-80
2024/04/15 00:22:01;;;;;;;;;;;;;;;13.96;55.40;99056.31;5394695;26;19958;-80
2024/04/15 00:24:27;;;;;;;;;;;;;;;13.90;56.27;99055.34;5379072;26;19958;-81
2024/04/15 00:26:52;;;;;;;;;;;;;;;13.90;56.38;99050.56;5380996;26;19936;-82
2024/04/15 00:29:17;;;;;;;;;;;;;;;13.85;57.21;99048.38;5402651;26;19929;-80
2024/04/15 00:31:43;;;;;;;;;;;;;;;13.96;56.88;99040.44;5398012;26;19929;-80
2024/04/15 00:34:08;;;;;;;;;;;;;;;14.10;56.68;99037.16;5407515;26;20006;-81
2024/04/15 00:36:33;;;;;;;;;;;;;;;14.09;57.66;99040.38;5379533;26;20345;-79
2024/04/15 00:38:58;;;;;;;;;;;;;;;14.19;56.60;99045.53;5408940;26;20314;-78
2024/04/15 00:41:24;;;;;;;;;;;;;;;14.23;57.05;99046.19;5396404;26;19937;-78
2024/04/15 00:43:49;;;;;;;;;;;;;;;14.24;55.98;99035.84;5384158;26;19943;-78
2024/04/15 00:46:14;;;;;;;;;;;;;;;14.25;56.94;99040.94;5416180;26;19945;-79
2024/04/15 00:48:40;;;;;;;;;;;;;;;14.13;57.12;99035.47;5390078;26;20446;-79
2024/04/15 00:51:06;;;;;;;;;;;;;;;13.90;58.72;99033.91;5416298;26;19928;-77
2024/04/15 00:53:31;;;;;;;;;;;;;;;13.78;59.01;99026.41;5385462;26;19934;-81
2024/04/15 00:55:58;;;;;;;;;;;;;;;14.02;56.23;99026.75;5400335;26;20351;-79
2024/04/15 00:58:24;;;;;;;;;;;;;;;14.34;55.48;99029.13;5389549;26;19936;-79
2024/04/15 01:00:50;;;;;;;;;;;;;;;14.53;54.53;99028.00;5384707;26;19957;-78
2024/04/15 01:03:16;;;;;;;;;;;;;;;14.65;54.11;99026.38;5382445;26;19930;-81
2024/04/15 01:05:41;;;;;;;;;;;;;;;14.78;53.16;99026.28;5382490;26;19999;-78
2024/04/15 01:08:07;;;;;;;;;;;;;;;14.85;53.23;99032.34;5411201;26;19997;-80
2024/04/15 01:10:33;;;;;;;;;;;;;;;14.71;54.66;99037.72;5417960;26;19961;-80
2024/04/15 01:12:58;;;;;;;;;;;;;;;14.14;56.54;99037.00;5417595;26;19953;-79
2024/04/15 01:15:23;;;;;;;;;;;;;;;13.68;58.01;99036.63;5417598;26;19938;-79
2024/04/15 01:17:48;;;;;;;;;;;;;;;13.36;58.83;99034.94;5389102;26;19929;-79
2024/04/15 01:20:14;;;;;;;;;;;;;;;13.06;59.67;99029.97;5401405;26;19929;-79
2024/04/15 01:22:44;;;;;;;;;;;;;;;12.80;60.75;99033.97;5417676;26;19929;-81
2024/04/15 01:25:10;;;;;;;;;;;;;;;12.60;61.07;99039.69;5399029;26;20335;-80
2024/04/15 01:27:35;;;;;;;;;;;;;;;12.36;62.53;99032.91;5381965;26;19930;-79
2024/04/15 01:30:00;;;;;;;;;;;;;;;12.13;63.24;99036.72;5382252;26;19929;-80
2024/04/15 01:32:26;;;;;;;;;;;;;;;11.94;64.88;99029.34;5405871;26;20035;-80
2024/04/15 01:34:51;;;;;;;;;;;;;;;11.82;65.72;99019.78;5400834;26;19929;-80
2024/04/15 01:37:16;;;;;;;;;;;;;;;11.76;65.82;99025.06;5410060;26;19994;-80
2024/04/15 01:39:41;;;;;;;;;;;;;;;11.94;65.38;99021.81;5382344;26;19930;-79
2024/04/15 01:42:07;;;;;;;;;;;;;;;11.95;64.87;99017.84;5405301;26;19940;-79
2024/04/15 01:44:32;;;;;;;;;;;;;;;11.87;66.06;99013.72;5396883;26;19961;-78
2024/04/15 01:46:57;;;;;;;;;;;;;;;11.89;66.10;99016.03;5389290;26;19998;-80
2024/04/15 01:49:23;;;;;;;;;;;;;;;11.98;65.46;99016.97;5381950;26;19929;-78
2024/04/15 01:51:48;;;;;;;;;;;;;;;12.07;64.75;99021.84;5405422;26;19929;-79
2024/04/15 01:54:13;;;;;;;;;;;;;;;12.10;64.44;99026.53;5381791;26;19937;-78
2024/04/15 01:56:39;;;;;;;;;;;;;;;12.15;64.64;99026.78;5380917;26;20390;-79
2024/04/15 01:59:06;;;;;;;;;;;;;;;12.37;63.74;99026.94;5397932;26;20035;-80
2024/04/15 02:01:31;;;;;;;;;;;;;;;12.62;61.89;99015.88;5413980;26;19936;-80
2024/04/15 02:03:57;;;;;;;;;;;;;;;13.02;59.79;99012.66;5382001;26;19934;-79
2024/04/15 02:06:22;;;;;;;;;;;;;;;13.05;60.01;99015.31;5404267;26;19933;-79
2024/04/15 02:08:47;;;;;;;;;;;;;;;13.08;60.01;99015.66;5382154;26;19929;-81
2024/04/15 02:11:13;;;;;;;;;;;;;;;13.08;60.13;99015.66;5383473;26;19930;-78
2024/04/15 02:13:38;;;;;;;;;;;;;;;13.25;59.01;99012.34;5396309;26;19936;-79
2024/04/15 02:16:03;;;;;;;;;;;;;;;13.44;57.88;99008.50;5417024;26;19937;-79
2024/04/15 02:18:29;;;;;;;;;;;;;;;13.50;57.58;99017.06;5424610;26;19935;-79
2024/04/15 02:20:54;;;;;;;;;;;;;;;13.43;58.17;99017.28;5416210;26;19929;-81
2024/04/15 02:23:19;;;;;;;;;;;;;;;13.37;58.10;99010.75;5422609;26;19929;-80
2024/04/15 02:25:45;;;;;;;;;;;;;;;13.35;58.66;99008.41;5407291;26;19929;-78
2024/04/15 02:28:10;;;;;;;;;;;;;;;13.26;58.60;99008.31;5383375;26;19929;-78
2024/04/15 02:30:36;;;;;;;;;;;;;;;13.26;59.31;99013.88;5384481;26;19929;-79
2024/04/15 02:33:01;;;;;;;;;;;;;;;13.21;59.59;99017.22;5403139;26;19998;-78
2024/04/15 02:35:26;;;;;;;;;;;;;;;13.17;60.31;99018.56;5406119;26;19928;-80
2024/04/15 02:37:51;;;;;;;;;;;;;;;13.05;60.75;99009.78;5403396;26;20331;-80
2024/04/15 02:40:17;;;;;;;;;;;;;;;12.88;61.44;99022.22;5380939;26;19930;-79
2024/04/15 02:42:42;;;;;;;;;;;;;;;12.56;61.87;99028.72;5381165;26;20339;-80
2024/04/15 02:45:07;;;;;;;;;;;;;;;12.10;63.52;99024.53;5381024;26;19935;-82
2024/04/15 02:47:33;;;;;;;;;;;;;;;11.75;65.27;99017.22;5416826;26;19940;-80
2024/04/15 02:49:58;;;;;;;;;;;;;;;11.57;65.75;99019.66;5393863;26;19937;-79
2024/04/15 02:52:24;;;;;;;;;;;;;;;11.40;66.58;99016.88;5395029;26;19965;-80
2024/04/15 02:54:49;;;;;;;;;;;;;;;11.29;68.27;99019.16;5392190;26;19937;-80
2024/04/15 02:57:14;;;;;;;;;;;;;;;11.42;68.83;99013.69;5416141;26;19948;-80
2024/04/15 02:59:40;;;;;;;;;;;;;;;11.53;68.24;99013.41;5392698;26;19999;-81
2024/04/15 03:02:08;;;;;;;;;;;;;;;11.66;67.39;99020.56;5392525;26;19929;-79
2024/04/15 03:04:33;;;;;;;;;;;;;;;11.77;66.74;99018.31;5415980;26;19936;-81
2024/04/15 03:06:58;;;;;;;;;;;;;;;11.81;66.78;99009.94;5382511;26;19933;-81
2024/04/15 03:09:25;;;;;;;;;;;;;;;11.77;66.97;99010.03;5380974;26;19937;-79
2024/04/15 03:11:50;;;;;;;;;;;;;;;11.83;66.38;99013.81;5357742;26;20386;-79
2024/04/15 03:14:16;;;;;;;;;;;;;;;11.87;65.80;99018.47;5404147;26;19936;-80
2024/04/15 03:16:44;;;;;;;;;;;;;;;11.73;65.62;99016.84;5379720;26;19988;-80
2024/04/15 03:19:10;;;;;;;;;;;;;;;11.50;66.10;99012.31;5380524;26;19958;-80
2024/04/15 03:21:35;;;;;;;;;;;;;;;11.22;67.60;99011.03;5380560;26;19929;-81
2024/04/15 03:24:00;;;;;;;;;;;;;;;11.30;67.82;99012.41;5380341;26;20366;-81
2024/04/15 03:26:26;;;;;;;;;;;;;;;11.56;65.90;99020.84;5380383;26;19930;-80
2024/04/15 03:28:51;;;;;;;;;;;;;;;11.99;63.44;99013.00;5404291;26;19936;-80
2024/04/15 03:31:16;;;;;;;;;;;;;;;12.37;62.07;99009.53;5380463;26;20353;-80
2024/04/15 03:33:41;;;;;;;;;;;;;;;12.48;61.47;99009.97;5405080;26;19929;-80
2024/04/15 03:36:07;;;;;;;;;;;;;;;12.44;62.28;99017.63;5415447;26;19998;-79
2024/04/15 03:38:32;;;;;;;;;;;;;;;12.32;63.44;99018.38;5415512;26;20361;-80
2024/04/15 03:40:58;;;;;;;;;;;;;;;12.06;65.29;99023.06;5391065;26;19928;-82
2024/04/15 03:43:23;;;;;;;;;;;;;;;11.71;66.43;99024.78;5392940;26;20158;-81
2024/04/15 03:45:49;;;;;;;;;;;;;;;11.36;66.74;99021.75;5415148;26;20253;-80
2024/04/15 03:48:16;;;;;;;;;;;;;;;11.24;66.88;99016.91;5414394;26;20518;-82
2024/04/15 03:50:41;;;;;;;;;;;;;;;11.13;67.22;99015.63;5381099;26;19930;-80
2024/04/15 03:53:06;;;;;;;;;;;;;;;11.15;67.30;99015.97;5402088;26;19936;-80
2024/04/15 03:55:32;;;;;;;;;;;;;;;11.15;67.97;99013.97;5390786;26;20253;-80
2024/04/15 03:57:57;;;;;;;;;;;;;;;11.10;67.93;99013.72;5394057;26;19942;-82
2024/04/15 04:00:22;;;;;;;;;;;;;;;11.18;68.29;99021.41;5405795;26;19957;-82
2024/04/15 04:02:48;;;;;;;;;;;;;;;11.35;67.31;99024.94;5401041;26;19940;-80
2024/04/15 04:05:13;;;;;;;;;;;;;;;11.67;66.52;99019.38;5415265;26;19937;-80
2024/04/15 04:07:38;;;;;;;;;;;;;;;12.02;64.51;99020.41;5393864;26;19930;-80
2024/04/15 04:10:04;;;;;;;;;;;;;;;12.10;64.18;99019.00;5402919;26;19929;-80
2024/04/15 04:12:29;;;;;;;;;;;;;;;12.29;63.64;99022.03;5399911;26;19962;-80
2024/04/15 04:14:54;;;;;;;;;;;;;;;12.55;62.79;99020.84;5405994;26;20276;-80
2024/04/15 04:17:19;;;;;;;;;;;;;;;12.83;62.04;99028.31;5401876;26;19961;-80
2024/04/15 04:19:45;;;;;;;;;;;;;;;12.95;60.77;99033.09;5406321;26;19929;-80
2024/04/15 04:22:10;;;;;;;;;;;;;;;13.19;61.50;99036.31;5399989;26;19935;-80
2024/04/15 04:24:37;;;;;;;;;;;;;;;13.58;59.65;99037.00;5414587;26;20348;-81
2024/04/15 04:27:02;;;;;;;;;;;;;;;14.06;58.12;99038.50;5396294;26;19929;-81
2024/04/15 04:29:28;;;;;;;;;;;;;;;14.61;55.36;99037.66;5391587;26;19945;-82
2024/04/15 04:31:53;;;;;;;;;;;;;;;15.13;53.19;99021.34;5398097;26;19937;-80
2024/04/15 04:34:18;;;;;;;;;;;;;;;16.48;50.72;99024.66;5408119;26;19929;-80
2024/04/15 04:36:43;;;;;;;;;;;;;;;17.67;47.02;99025.69;5382676;26;19976;-79
2024/04/15 04:39:10;;;;;;;;;;;;;;;18.54;44.43;99027.09;5406276;26;19937;-80
2024/04/15 04:41:35;;;;;;;;;;;;;;;18.78;43.01;99035.41;5385090;26;19929;-80
2024/04/15 04:44:00;;;;;;;;;;;;;;;19.47;41.33;99031.88;5391973;26;19936;-81
2024/04/15 04:46:26;;;;;;;;;;;;;;;19.79;40.52;99023.63;5420186;26;20349;-80
2024/04/15 04:48:51;;;;;;;;;;;;;;;19.98;40.03;99030.47;5417328;26;20377;-81
2024/04/15 04:51:16;;;;;;;;;;;;;;;20.19;40.05;99026.38;5398953;26;19941;-80
2024/04/15 04:53:41;;;;;;;;;;;;;;;21.13;38.32;99034.13;5415893;26;19980;-80
2024/04/15 04:56:14;;;;;;;;;;;;;;;21.62;38.13;99038.53;5423774;26;19928;-80
2024/04/15 04:58:39;;;;;;;;;;;;;;;21.90;37.03;99033.78;5408204;26;20384;-80
2024/04/15 05:01:11;;;;;;;;;;;;;;;22.16;36.55;99030.84;5414789;26;19933;-83
2024/04/15 05:03:38;;;;;;;;;;;;;;;22.13;35.05;99031.84;5394377;26;19957;-80
2024/04/15 05:06:04;;;;;;;;;;;;;;;22.62;35.40;99030.41;5397556;26;19999;-80
2024/04/15 05:08:29;;;;;;;;;;;;;;;23.30;34.60;99023.47;5405757;26;19957;-81
2024/04/15 05:10:54;;;;;;;;;;;;;;;23.67;34.00;99016.75;5403027;26;20338;-81
2024/04/15 05:13:20;;;;;;;;;;;;;;;23.96;33.80;99023.78;5394299;26;19936;-82
2024/04/15 05:15:45;;;;;;;;;;;;;;;24.27;32.88;99029.81;5395991;26;20365;-82
2024/04/15 05:18:10;;;;;;;;;;;;;;;25.71;30.64;99020.63;5415182;26;19937;-81
2024/04/15 05:20:38;;;;;;;;;;;;;;;26.46;29.71;99020.69;5396500;26;19930;-80
2024/04/15 05:23:04;;;;;;;;;;;;;;;27.08;29.01;99019.16;5417340;26;19936;-79
2024/04/15 05:25:29;;;;;;;;;;;;;;;28.05;26.96;99020.38;5416919;26;19929;-78
2024/04/15 05:27:54;;;;;;;;;;;;;;;28.62;26.62;99029.97;5384029;26;19930;-79
2024/04/15 05:30:20;;;;;;;;;;;;;;;28.40;26.75;99021.97;5381976;26;19941;-80
2024/04/15 05:32:45;;;;;;;;;;;;;;;27.62;27.73;99014.31;5404958;26;19933;-77
2024/04/15 05:35:10;;;;;;;;;;;;;;;28.13;27.57;99024.13;5403045;26;19940;-77
2024/04/15 05:37:35;;;;;;;;;;;;;;;28.35;27.01;99022.84;5417381;26;19957;-81
2024/04/15 05:40:01;;;;;;;;;;;;;;;28.12;27.07;99021.78;5418743;26;19933;-80
2024/04/15 05:42:26;;;;;;;;;;;;;;;28.04;26.82;99021.69;5407790;26;19936;-78
2024/04/15 05:44:51;;;;;;;;;;;;;;;28.48;26.74;99019.19;5403421;26;19929;-79
2024/04/15 05:47:17;;;;;;;;;;;;;;;29.23;25.38;99012.72;5408775;26;19930;-80
2024/04/15 05:49:42;;;;;;;;;;;;;;;29.70;24.76;99015.31;5404115;26;19929;-78
2024/04/15 05:52:07;;;;;;;;;;;;;;;30.51;23.40;99020.44;5410081;26;20324;-81
2024/04/15 05:54:32;;;;;;;;;;;;;;;30.78;23.31;99013.09;5381678;26;19937;-81
2024/04/15 05:56:58;;;;;;;;;;;;;;;31.43;23.13;99019.94;5380900;26;19941;-79
2024/04/15 05:59:23;;;;;;;;;;;;;;;32.46;21.49;99019.25;5402818;26;19929;-78
2024/04/15 06:01:48;;;;;;;;;;;;;;;31.89;22.50;99003.47;5392799;26;20264;-80
2024/04/15 06:04:14;;;;;;;;;;;;;;;32.43;22.32;99006.84;5395493;26;19929;-81
2024/04/15 06:06:39;;;;;;;;;;;;;;;33.15;21.97;98996.66;5406391;26;19938;-81
2024/04/15 06:09:04;;;;;;;;;;;;;;;33.31;21.47;99006.66;5381193;26;19988;-83
2024/04/15 06:11:29;;;;;;;;;;;;;;;33.36;22.65;99006.41;5381364;26;19934;-80
2024/04/15 06:13:55;;;;;;;;;;;;;;;33.54;22.80;99004.31;5381363;26;19929;-80
2024/04/15 06:16:20;;;;;;;;;;;;;;;34.50;21.06;98993.59;5381032;26;20285;-81
2024/04/15 06:18:45;;;;;;;;;;;;;;;35.12;20.18;98994.19;5382876;26;19998;-82
2024/04/15 06:21:11;;;;;;;;;;;;;;;34.77;21.22;98996.50;5380952;26;19929;-80
2024/04/15 06:23:36;;;;;;;;;;;;;;;35.82;19.78;99000.97;5381167;26;19937;-83
2024/04/15 06:26:03;;;;;;;;;;;;;;;36.46;19.08;98998.50;5383808;26;19930;-83
2024/04/15 06:28:28;;;;;;;;;;;;;;;35.89;19.83;99000.06;5388958;26;19937;-83
2024/04/15 06:30:53;;;;;;;;;;;;;;;35.04;21.55;98987.81;5384171;26;20357;-85
2024/04/15 06:33:19;;;;;;;;;;;;;;;34.97;20.20;98994.44;5395332;26;19937;-85
2024/04/15 06:35:46;;;;;;;;;;;;;;;35.01;19.91;98986.91;5389631;26;19952;-81
2024/04/15 06:38:13;;;;;;;;;;;;;;;35.98;19.43;98987.06;5397021;26;19937;-83
2024/04/15 06:40:38;;;;;;;;;;;;;;;36.70;17.92;98983.00;5390323;26;19936;-81
2024/04/15 06:43:03;;;;;;;;;;;;;;;37.07;18.32;98989.94;5381082;26;19945;-80
2024/04/15 06:45:29;;;;;;;;;;;;;;;36.71;16.92;98984.53;5404250;26;19930;-82
2024/04/15 06:47:54;;;;;;;;;;;;;;;36.61;18.05;98987.38;5398003;26;19975;-82
2024/04/15 06:50:19;;;;;;;;;;;;;;;36.96;16.46;98981.97;5416479;26;19937;-84
2024/04/15 06:52:45;;;;;;;;;;;;;;;37.10;16.98;98979.34;5396342;26;19930;-83
2024/04/15 06:55:10;;;;;;;;;;;;;;;37.36;16.30;98986.16;5384594;26;19949;-82
2024/04/15 06:57:36;;;;;;;;;;;;;;;36.66;16.86;98974.81;5414715;26;19929;-83
2024/04/15 07:00:01;;;;;;;;;;;;;;;37.35;15.78;98978.88;5414606;26;19929;-82
2024/04/15 07:02:27;;;;;;;;;;;;;;;37.42;16.47;98975.06;5395840;26;19937;-82
2024/04/15 07:04:53;;;;;;;;;;;;;;;37.86;15.35;98974.41;5405815;26;19933;-81
2024/04/15 07:07:18;;;;;;;;;;;;;;;38.29;16.85;98969.28;5395395;26;19953;-81
2024/04/15 07:09:45;;;;;;;;;;;;;;;38.16;16.06;98967.03;5377071;26;20020;-81
2024/04/15 07:12:10;;;;;;;;;;;;;;;38.51;14.76;98970.00;5396487;26;20362;-82
2024/04/15 07:14:36;;;;;;;;;;;;;;;38.74;15.21;98955.59;5412755;26;19936;-82
2024/04/15 07:17:01;;;;;;;;;;;;;;;39.08;14.90;98965.63;5412916;26;19974;-81
2024/04/15 07:19:27;;;;;;;;;;;;;;;38.70;15.13;98961.13;5415446;26;19933;-82
2024/04/15 07:21:52;;;;;;;;;;;;;;;38.19;15.57;98951.34;5399319;26;19941;-82
2024/04/15 07:24:18;;;;;;;;;;;;;;;38.24;15.81;98955.97;5392007;26;19937;-82
2024/04/15 07:26:44;;;;;;;;;;;;;;;37.92;14.66;98957.50;5431858;26;19936;-81
2024/04/15 07:29:10;;;;;;;;;;;;;;;38.72;14.51;98943.88;5429070;26;19968;-81
2024/04/15 07:31:35;;;;;;;;;;;;;;;37.69;13.80;98948.75;5386017;26;19942;-80
2024/04/15 07:34:01;;;;;;;;;;;;;;;37.59;14.25;98945.19;5374363;26;20331;-80
2024/04/15 07:36:28;;;;;;;;;;;;;;;38.56;14.80;98937.88;5380394;26;19933;-81
2024/04/15 07:38:53;;;;;;;;;;;;;;;38.73;14.75;98935.97;5403106;26;19929;-81
2024/04/15 07:41:20;;;;;;;;;;;;;;;39.01;15.51;98929.81;5379674;26;20269;-81
2024/04/15 07:43:47;;;;;;;;;;;;;;;37.96;14.33;98934.69;5379057;26;20331;-82
2024/04/15 07:46:12;;;;;;;;;;;;;;;38.00;14.33;98926.28;5415416;26;19936;-82
2024/04/15 07:48:41;;;;;;;;;;;;;;;38.33;14.25;98917.59;5415004;26;19937;-81
2024/04/15 07:51:06;;;;;;;;;;;;;;;37.79;15.10;98924.22;5392255;26;19930;-80
2024/04/15 07:53:31;;;;;;;;;;;;;;;36.52;16.36;98921.97;5379768;26;20003;-80
2024/04/15 07:55:57;;;;;;;;;;;;;;;35.18;17.47;98914.22;5379973;26;20370;-81
2024/04/15 07:58:22;;;;;;;;;;;;;;;34.03;18.37;98916.59;5379920;26;19936;-81
2024/04/15 08:00:47;;;;;;;;;;;;;;;32.10;19.14;98914.56;5379832;26;19999;-80
2024/04/15 08:03:13;;;;;;;;;;;;;;;31.40;21.63;98915.44;5403429;26;20011;-81
2024/04/15 08:05:38;;;;;;;;;;;;;;;30.62;21.95;98906.75;5371334;26;20367;-79
2024/04/15 08:08:04;;;;;;;;;;;;;;;30.26;21.77;98897.59;5394777;26;19933;-82
2024/04/15 08:10:30;;;;;;;;;;;;;;;29.98;23.37;98889.16;5417848;26;19928;-81
2024/04/15 08:12:55;;;;;;;;;;;;;;;29.52;23.28;98888.97;5384908;26;20422;-81
2024/04/15 08:15:20;;;;;;;;;;;;;;;29.20;22.06;98892.19;5397537;26;19933;-81
2024/04/15 08:17:45;;;;;;;;;;;;;;;29.18;24.62;98882.69;5390649;26;19929;-80
2024/04/15 08:20:11;;;;;;;;;;;;;;;29.04;22.32;98890.59;5417543;26;20250;-81
2024/04/15 08:22:36;;;;;;;;;;;;;;;28.95;22.51;98882.56;5387058;26;20370;-80
2024/04/15 08:25:08;;;;;;;;;;;;;;;28.62;25.20;98870.00;5381085;26;19929;-81
2024/04/15 08:27:33;;;;;;;;;;;;;;;28.37;23.53;98874.50;5391506;26;19929;-81
2024/04/15 08:29:59;;;;;;;;;;;;;;;28.24;24.33;98863.97;5419735;26;19937;-81
2024/04/15 08:32:33;;;;;;;;;;;;;;;28.10;25.84;98860.41;5387935;26;19953;-80
2024/04/15 08:34:59;;;;;;;;;;;;;;;27.89;27.95;98862.47;5382896;26;19941;-81
2024/04/15 08:37:24;;;;;;;;;;;;;;;27.95;27.40;98860.25;5408399;26;19937;-82
2024/04/15 08:39:49;;;;;;;;;;;;;;;28.18;25.78;98838.53;5382706;26;19936;-81
2024/04/15 08:42:21;;;;;;;;;;;;;;;28.12;27.67;98839.97;5382923;26;19941;-81
2024/04/15 08:44:48;;;;;;;;;;;;;;;27.58;27.13;98849.25;5386158;26;19929;-81
2024/04/15 08:47:22;;;;;;;;;;;;;;;27.20;27.51;98848.72;5390300;26;19929;-81
2024/04/15 08:50:13;;;;;;;;;;;;;;;26.92;27.81;98840.78;5397196;26;19954;-83
2024/04/15 08:52:41;;;;;;;;;;;;;;;27.04;29.46;98837.19;5382856;26;19962;-82
2024/04/15 08:55:08;;;;;;;;;;;;;;;27.20;29.62;98826.03;5396357;26;19943;-81
2024/04/15 08:57:34;;;;;;;;;;;;;;;27.37;27.52;98829.28;5382531;26;20354;-81
2024/04/15 09:00:00;;;;;;;;;;;;;;;27.32;27.14;98830.94;5388672;26;20368;-82
2024/04/15 09:02:28;;;;;;;;;;;;;;;27.20;29.22;98829.63;5418214;26;20052;-80
2024/04/15 09:04:54;;;;;;;;;;;;;;;27.05;27.11;98821.72;5419261;26;19957;-81
2024/04/15 09:07:19;;;;;;;;;;;;;;;26.97;27.85;98820.84;5400003;26;19929;-81
2024/04/15 09:09:45;;;;;;;;;;;;;;;27.11;27.78;98824.44;5383958;26;19936;-81
2024/04/15 09:12:10;;;;;;;;;;;;;;;26.81;27.84;98821.16;5400046;26;19941;-81
2024/04/15 09:14:36;;;;;;;;;;;;;;;26.62;28.22;98815.56;5390565;26;19941;-81
2024/04/15 09:17:02;;;;;;;;;;;;;;;26.83;28.37;98810.00;5381542;26;20268;-81
2024/04/15 09:19:29;;;;;;;;;;;;;;;26.95;28.61;98802.81;5392080;26;19929;-81
2024/04/15 09:21:58;;;;;;;;;;;;;;;26.95;29.87;98800.00;5395360;26;20350;-82
2024/04/15 09:24:24;;;;;;;;;;;;;;;27.20;29.70;98795.59;5370713;26;19929;-81
2024/04/15 09:26:50;;;;;;;;;;;;;;;27.12;28.50;98797.59;5417254;26;20260;-81
2024/04/15 09:29:15;;;;;;;;;;;;;;;27.36;28.50;98788.81;5407664;26;19934;-85
2024/04/15 09:31:42;;;;;;;;;;;;;;;27.56;29.02;98778.06;5408040;26;19929;-81
2024/04/15 09:34:07;;;;;;;;;;;;;;;27.56;29.23;98772.38;5394854;26;19932;-81
2024/04/15 09:36:34;;;;;;;;;;;;;;;27.62;29.05;98770.94;5393313;26;19999;-82
2024/04/15 09:39:00;;;;;;;;;;;;;;;27.55;28.65;98771.63;5384221;26;19936;-81
2024/04/15 09:41:25;;;;;;;;;;;;;;;27.48;29.50;98766.63;5387814;26;19939;-81
2024/04/15 09:43:52;;;;;;;;;;;;;;;27.59;28.19;98765.59;5387577;26;20345;-80
2024/04/15 09:46:19;;;;;;;;;;;;;;;27.48;28.48;98764.53;5401951;26;19945;-80
2024/04/15 09:48:47;;;;;;;;;;;;;;;27.49;28.43;98759.59;5383674;26;20051;-81
2024/04/15 09:51:19;;;;;;;;;;;;;;;27.67;27.84;98758.69;5400880;26;19945;-80
2024/04/15 09:53:49;;;;;;;;;;;;;;;27.31;27.60;98758.47;5388297;26;20268;-81
2024/04/15 09:56:25;;;;;;;;;;;;;;;27.42;27.79;98744.03;5401698;26;19936;-81
2024/04/15 09:58:52;;;;;;;;;;;;;;;27.64;27.76;98742.00;5405797;26;19936;-81
2024/04/15 10:01:19;;;;;;;;;;;;;;;27.72;28.32;98740.78;5420597;26;19941;-80
2024/04/15 10:03:46;;;;;;;;;;;;;;;27.67;26.49;98726.72;5395852;26;19930;-81
2024/04/15 10:06:14;;;;;;;;;;;;;;;27.73;28.13;98724.50;5385440;26;20338;-81
2024/04/15 10:08:40;;;;;;;;;;;;;;;27.83;27.48;98728.38;5397651;26;19944;-79
2024/04/15 10:11:05;;;;;;;;;;;;;;;27.62;28.16;98722.66;5359171;26;19930;-79
2024/04/15 10:13:34;;;;;;;;;;;;;;;27.66;27.83;98714.59;5387185;26;19930;-81
2024/04/15 10:16:00;;;;;;;;;;;;;;;27.46;27.33;98713.22;5386773;26;19929;-83
2024/04/15 10:18:27;;;;;;;;;;;;;;;27.58;26.95;98702.41;5383397;26;19929;-82
2024/04/15 10:20:55;;;;;;;;;;;;;;;27.53;27.15;98698.38;5386572;26;19957;-81
2024/04/15 10:23:24;;;;;;;;;;;;;;;27.65;27.22;98698.88;5402287;26;19936;-82
2024/04/15 10:25:50;;;;;;;;;;;;;;;27.70;27.84;98691.53;5413589;26;19929;-81
2024/04/15 10:28:15;;;;;;;;;;;;;;;27.72;25.67;98695.34;5407644;26;20001;-83
2024/04/15 10:30:41;;;;;;;;;;;;;;;27.65;26.06;98689.59;5397359;26;19949;-82
2024/04/15 10:33:08;;;;;;;;;;;;;;;27.75;27.96;98677.19;5387544;26;19941;-81
2024/04/15 10:35:35;;;;;;;;;;;;;;;27.74;26.78;98669.22;5397249;26;19936;-81
2024/04/15 10:38:07;;;;;;;;;;;;;;;27.69;25.96;98664.44;5396404;26;19930;-80
2024/04/15 10:40:33;;;;;;;;;;;;;;;27.71;26.32;98664.66;5385325;26;19929;-82
2024/04/15 10:42:59;;;;;;;;;;;;;;;27.77;25.94;98659.59;5398051;26;19936;-81
2024/04/15 10:45:26;;;;;;;;;;;;;;;27.78;25.70;98656.22;5399485;26;19930;-80
2024/04/15 10:47:52;;;;;;;;;;;;;;;27.88;26.00;98657.22;5379361;26;19936;-81
2024/04/15 10:50:17;;;;;;;;;;;;;;;27.92;25.71;98651.19;5403622;26;19945;-78
2024/04/15 10:52:42;;;;;;;;;;;;;;;28.01;26.07;98647.09;5400500;26;20393;-80
2024/04/15 10:55:08;;;;;;;;;;;;;;;28.04;24.75;98655.22;5395349;26;19936;-81
2024/04/15 10:57:33;;;;;;;;;;;;;;;27.95;24.66;98647.25;5369821;26;19937;-83
2024/04/15 10:59:59;;;;;;;;;;;;;;;28.02;24.45;98637.25;5389387;26;19940;-82
2024/04/15 11:02:24;;;;;;;;;;;;;;;28.08;24.06;98635.78;5386599;26;19929;-81
2024/04/15 11:04:52;;;;;;;;;;;;;;;27.98;24.63;98640.44;5388879;26;19941;-81
2024/04/15 11:07:18;;;;;;;;;;;;;;;28.12;23.93;98633.31;5391379;26;19929;-80
2024/04/15 11:09:43;;;;;;;;;;;;;;;28.03;24.89;98627.41;5396176;26;19940;-81
2024/04/15 11:12:09;;;;;;;;;;;;;;;28.08;24.46;98623.66;5400117;26;19930;-80
2024/04/15 11:14:34;;;;;;;;;;;;;;;27.98;23.87;98614.09;5368505;26;19941;-81
2024/04/15 11:17:00;;;;;;;;;;;;;;;28.04;24.19;98617.53;5382758;26;19930;-81
2024/04/15 11:19:26;;;;;;;;;;;;;;;28.16;23.46;98608.19;5376526;26;19929;-81
2024/04/15 11:22:00;;;;;;;;;;;;;;;28.14;24.01;98599.47;5384603;26;19937;-80
2024/04/15 11:24:25;;;;;;;;;;;;;;;28.22;24.93;98590.97;5398556;26;20266;-81
2024/04/15 11:26:51;;;;;;;;;;;;;;;28.37;26.25;98579.69;5392493;26;19933;-80
2024/04/15 11:29:18;;;;;;;;;;;;;;;28.40;24.89;98587.06;5417932;26;19998;-80
2024/04/15 11:31:43;;;;;;;;;;;;;;;28.53;21.27;98569.13;5416008;26;19929;-80
2024/04/15 11:34:09;;;;;;;;;;;;;;;28.58;22.77;98568.19;5417075;26;19929;-80
2024/04/15 11:36:37;;;;;;;;;;;;;;;28.60;21.90;98559.88;5417411;26;19929;-80
2024/04/15 11:39:02;;;;;;;;;;;;;;;28.51;24.07;98549.03;5414537;26;19937;-79
2024/04/15 11:41:27;;;;;;;;;;;;;;;28.56;23.92;98542.41;5415555;26;20344;-80
2024/04/15 11:43:53;;;;;;;;;;;;;;;28.60;25.03;98535.03;5414899;26;19933;-81
2024/04/15 11:46:18;;;;;;;;;;;;;;;28.59;25.07;98546.97;5415395;26;19936;-81
2024/04/15 11:48:50;;;;;;;;;;;;;;;28.60;23.65;98531.44;5410014;26;19962;-80
2024/04/15 11:51:19;;;;;;;;;;;;;;;28.66;23.81;98529.16;5381203;26;19929;-82
2024/04/15 11:53:44;;;;;;;;;;;;;;;28.76;24.78;98524.47;5387693;26;20364;-81
2024/04/15 11:56:10;;;;;;;;;;;;;;;28.65;23.57;98521.97;5415957;26;19997;-81
2024/04/15 11:58:35;;;;;;;;;;;;;;;28.67;23.78;98519.31;5407590;26;20260;-81
2024/04/15 12:01:01;;;;;;;;;;;;;;;28.70;23.43;98515.34;5380564;26;20254;-81
2024/04/15 12:03:26;;;;;;;;;;;;;;;28.74;23.49;98510.09;5381350;26;19930;-81
2024/04/15 12:05:56;;;;;;;;;;;;;;;28.81;23.47;98505.72;5380550;26;19934;-81
2024/04/15 12:08:21;;;;;;;;;;;;;;;28.97;21.49;98507.25;5390206;26;19929;-81
2024/04/15 12:10:47;;;;;;;;;;;;;;;28.90;21.09;98499.47;5379348;26;19941;-81
2024/04/15 12:13:12;;;;;;;;;;;;;;;28.96;23.06;98495.13;5380129;26;20411;-81
2024/04/15 12:15:37;;;;;;;;;;;;;;;28.97;22.94;98490.19;5379296;26;19944;-81
2024/04/15 12:18:03;;;;;;;;;;;;;;;28.99;22.56;98488.31;5380360;26;19936;-81
2024/04/15 12:20:28;;;;;;;;;;;;;;;28.89;21.76;98480.88;5385015;26;19936;-82
2024/04/15 12:22:53;;;;;;;;;;;;;;;28.95;22.65;98470.84;5415823;26;20419;-82
2024/04/15 12:25:18;;;;;;;;;;;;;;;29.03;22.69;98471.59;5393063;26;19933;-82
2024/04/15 12:27:45;;;;;;;;;;;;;;;29.08;23.49;98467.03;5398923;26;19936;-82
2024/04/15 12:30:10;;;;;;;;;;;;;;;28.88;24.80;98468.75;5374557;26;19930;-83
2024/04/15 12:32:37;;;;;;;;;;;;;;;28.86;24.45;98453.59;5393086;26;19999;-81
2024/04/15 12:35:02;;;;;;;;;;;;;;;28.90;24.08;98451.88;5397514;26;19941;-81
2024/04/15 12:37:27;;;;;;;;;;;;;;;28.96;25.09;98438.22;5397910;26;20048;-82
2024/04/15 12:39:53;;;;;;;;;;;;;;;28.92;24.87;98446.38;5416625;26;19975;-81